Airfield :
LOGIN :

Register | Disclaimer

   EN    FR    IT 

 










Legend :    VFR   Marginal VFR   IFR   Intensive IFR   Very Intensive IFR
Visi :
Ceiling :
>= 8 km
>= 3000ft
5 to 8 km
1000 to 3000 ft
1500m to 5 km
500 to 1000 ft
800 to 1500m
200 to 500 ft
< 800m
< 200 ft
Symbols :   Thunderstorms  Fog  Heavy snow  Heavy precipitations  Wind > 20 kt
SIGMETs :     Misc.  Thunderstorms  Icing  Turbulence  Mountain Waves  Volcanic Ashes






- Airport Elevation : 87 ft
- IATA code : FSC


LFKF - Figari

CURRENT METAR :
  • 150730Z AUTO 05008KT 010V080 CAVOK 24/19 Q1013 TEMPO SHRA BKN015 SCT030CB

EXPIRED METARs :
  • 150700Z AUTO 07005KT 030V110 9999 FEW047 BKN160 22/19 Q1014 TEMPO SHRA BKN015 SCT030CB
  • 150630Z AUTO 07007KT 030V110 9999 SCT046 BKN210 21/19 Q1013 TEMPO SHRA BKN015 SCT030CB
  • 150600Z AUTO 07007KT 030V110 CAVOK 21/19 Q1013 TEMPO SHRA BKN015 SCT030CB
  • 150530Z AUTO 07006KT 9999 FEW060 BKN072 BKN210 20/19 Q1013 TEMPO SHRA BKN015 SCT030CB
  • 150500Z AUTO 07006KT 040V100 9999 SCT074 BKN250 20/19 Q1013 TEMPO SHRA BKN015 SCT030CB
  • 150430Z AUTO 07004KT 040V110 9999 FEW060 20/19 Q1014 TEMPO SHRA BKN015 SCT030CB

TAF TAF LFKF
Valid from the 15 at 03:00 until the 16 at 03:00 UTC


150200Z 1503/1603 06010KT 9999 BKN030
PROB40
TEMPO 1503/1509 SHRA BKN015 SCT030CB
BECMG 1510/1513 26015G30KT
PROB40
TEMPO 1510/1517 4000 TSRA SCT020CB BKN033



MET'MAP, your aeronautical weather chart ! - Copyright ORBIFLY December 2007 - Disclaimer

ORBIFLY MET'MAP TEAM :

Programming & Development : Alexandra Zaïnal
Concept & Development : Baudouin d'Aumeries
Co-Development & Prog : Marc-Olivier Méhu
Technical & hardware support : Manuel Goepfert

Contact : metmap@orbifly.com




SOURCES & CREDITS :

   NOAA